首页
METAR-TAF:

METAR-TAF

机场 :

俄斯特拉发, 捷克共和国

纬度: 49-41N, 经度: 018-07E, 海拔: 256米

当前天气观测

该预报发布于14分钟前的05:30 UTC
风速15节,风向西转西南
温度 10°C
湿度 87%
气压 1016 hPa
能見度: 9000

METAR: LKMT 230530Z 24015KT 9000 NSC 10/08 Q1016 NOSIG

时间: 07:44 (05:44 UTC)

预报

该预报发布于6小时和44分钟前的23:00 UTC
预报有效从23日的 00点(UTC)到 24日的 06点(UTC)
风速10节,风向西南
能见度10公里或以上
1500米以下无云,无积雨云
短暂存在
从 23日的 04点(UTC)到 24日的 06点(UTC)
风速15节,风向西南
成为
从 24日的 02点(UTC)到 24日的 04点(UTC)
能见度10公里或以上
多云层高于3000英尺

TAF: LKMT 222300Z 2300/2406 22010KT CAVOK TEMPO 2304/2406 23015KT BECMG 2402/2404 9999 BKN030

超过4000个机场的气象观测和天气预报(METAR&TAF报告)。

可查询的气象台以黄色和红色小点在地图上表示。

将鼠标移到小点上方,可查看气象台名称。

然后点击查看天气观测和预报。

如需切换地图:点击带黑十字的绿色按钮放大地图;点击带横线的绿色按钮缩小地图;或者点击绿色箭头查看邻近地区的地图。


METAR-TAF: